Epsom, United Kingdom
Current Conditions -  °F | °C
As of 10:50 PM on Wednesday 26 Nov 2014 (Local Time) from EGKK Reporting Station
Drizzle Drizzle  
Wind Chill: 50°   Ceiling: 300
Heat Index: 50°   Visibility: 1mi
Dew Point: 50°   Wind: 2mph
Humidity: 100%   Direction: 70°ENE
Pressure: 29.74"   Gusts: NA
Location:  51.33°N, 0.27°W
Report Text: EGKK 262250Z 07002KT 1600 -DZ BKN003 10/10 Q1007 REDZ
Loading
Personal Weather Stations






























Interactive Weather Map New forecast layout! Learn more

10-Day Weather Forecast

Advertisements
Track Severe Weather on mobile